Time;durP1;ratioP1;P1;durP2;ratioP2;P2;SDS_P1;SDS_P2;PMS_P1;PMS_P2;Temp;Humidity;BMP_temperature;BMP_pressure;BME280_temperature;BME280_humidity;BME280_pressure;Samples;Min_cycle;Max_cycle;Signal;HPM_P1;HPM_P2
2023/01/25 00:00:41;;;;;;;19.65;8.05;;;2.90;82.70;;;;;;4979348;28;87297;-71
2023/01/25 00:03:07;;;;;;;20.90;8.60;;;2.90;82.60;;;;;;4989091;28;87778;-73
2023/01/25 00:05:33;;;;;;;20.50;9.07;;;2.90;82.60;;;;;;4996012;28;88446;-70
2023/01/25 00:07:58;;;;;;;18.70;8.25;;;2.90;82.60;;;;;;4990213;28;88214;-71
2023/01/25 00:10:24;;;;;;;19.35;8.35;;;2.90;82.70;;;;;;4974923;28;87412;-71
2023/01/25 00:12:50;;;;;;;22.27;8.27;;;2.90;82.40;;;;;;4986291;28;87411;-71
2023/01/25 00:15:15;;;;;;;18.52;8.55;;;2.90;82.20;;;;;;4978711;28;87534;-73
2023/01/25 00:17:41;;;;;;;20.77;9.00;;;2.90;82.40;;;;;;4979669;28;87816;-72
2023/01/25 00:20:08;;;;;;;23.42;8.32;;;3.00;82.30;;;;;;4980725;28;87153;-71
2023/01/25 00:22:34;;;;;;;19.17;8.98;;;3.00;82.20;;;;;;4980021;28;86821;-73
2023/01/25 00:24:59;;;;;;;19.42;8.30;;;2.90;82.10;;;;;;4980506;28;87052;-73
2023/01/25 00:27:25;;;;;;;20.30;8.55;;;2.90;82.20;;;;;;4980402;28;88314;-72
2023/01/25 00:29:51;;;;;;;18.83;8.50;;;2.90;81.90;;;;;;4970694;28;88247;-72
2023/01/25 00:32:16;;;;;;;18.15;7.97;;;2.80;82.10;;;;;;4980379;28;88819;-72
2023/01/25 00:34:50;;;;;;;18.05;8.18;;;2.60;82.60;;;;;;4983549;28;87737;-72
2023/01/25 00:37:27;;;;;;;18.90;7.53;;;2.60;83.10;;;;;;4967193;28;87413;-72
2023/01/25 00:39:53;;;;;;;21.58;8.57;;;2.60;83.50;;;;;;4963614;28;88762;-71
2023/01/25 00:42:20;;;;;;;19.13;7.72;;;2.60;83.10;;;;;;4972763;28;87408;-71
2023/01/25 00:44:47;;;;;;;19.20;7.50;;;2.60;83.40;;;;;;4971394;28;88545;-71
2023/01/25 00:47:13;;;;;;;22.10;8.27;;;2.60;83.50;;;;;;4972081;28;87800;-71
2023/01/25 00:49:40;;;;;;;21.73;8.25;;;2.60;83.60;;;;;;4971204;28;87358;-70
2023/01/25 00:52:07;;;;;;;20.42;8.50;;;2.60;83.60;;;;;;4977781;28;87864;-70
2023/01/25 00:54:33;;;;;;;20.35;8.45;;;2.60;83.60;;;;;;4963298;28;89111;-72
2023/01/25 00:56:59;;;;;;;17.63;7.78;;;2.70;84.00;;;;;;4975512;28;88273;-72
2023/01/25 00:59:25;;;;;;;22.13;8.48;;;2.80;83.70;;;;;;4979186;28;87359;-72
2023/01/25 01:01:51;;;;;;;19.40;8.23;;;2.80;83.20;;;;;;4970501;28;87627;-71
2023/01/25 01:04:18;;;;;;;20.25;8.50;;;2.80;82.90;;;;;;4966143;28;88929;-71
2023/01/25 01:06:44;;;;;;;28.52;8.70;;;2.80;82.90;;;;;;4964367;28;87714;-71
2023/01/25 01:09:15;;;;;;;17.35;7.45;;;2.80;82.90;;;;;;4969375;28;87316;-71
2023/01/25 01:11:41;;;;;;;23.02;7.10;;;2.80;82.70;;;;;;4972218;28;86615;-72
2023/01/25 01:14:08;;;;;;;17.77;7.25;;;2.80;82.40;;;;;;4978829;28;87730;-72
2023/01/25 01:16:34;;;;;;;16.33;6.95;;;2.80;82.20;;;;;;4975940;28;88914;-71
2023/01/25 01:18:59;;;;;;;16.13;7.38;;;2.80;82.70;;;;;;4964525;28;88384;-73
2023/01/25 01:21:25;;;;;;;20.23;7.47;;;2.80;82.50;;;;;;4977145;28;87653;-71
2023/01/25 01:23:52;;;;;;;15.70;7.25;;;2.90;82.20;;;;;;4977871;28;87492;-73
2023/01/25 01:26:18;;;;;;;16.77;7.20;;;2.90;82.10;;;;;;4993268;28;87588;-71
2023/01/25 01:28:44;;;;;;;17.73;7.18;;;2.90;82.40;;;;;;4974149;28;87730;-71
2023/01/25 01:31:22;;;;;;;16.90;7.22;;;2.90;82.10;;;;;;4973719;28;88083;-72
2023/01/25 01:33:49;;;;;;;15.57;7.32;;;2.90;82.10;;;;;;4966202;28;88716;-70
2023/01/25 01:36:17;;;;;;;18.15;7.80;;;2.90;81.60;;;;;;4970113;28;87974;-72
2023/01/25 01:38:43;;;;;;;16.30;7.38;;;2.90;82.30;;;;;;4971200;28;87260;-72
2023/01/25 01:41:10;;;;;;;18.98;7.38;;;2.90;81.90;;;;;;4968429;28;87113;-71
2023/01/25 01:43:36;;;;;;;16.05;7.55;;;2.90;82.00;;;;;;4970545;28;88882;-70
2023/01/25 01:46:04;;;;;;;18.45;7.50;;;2.80;82.30;;;;;;4971383;28;88134;-71
2023/01/25 01:48:32;;;;;;;19.27;7.90;;;2.80;82.40;;;;;;4967938;28;88519;-72
2023/01/25 01:51:21;;;;;;;18.73;7.85;;;2.90;82.80;;;;;;4969827;28;87299;-72
2023/01/25 01:54:22;;;;;;;18.77;7.85;;;2.80;82.80;;;;;;4964439;28;87498;-71
2023/01/25 01:57:06;;;;;;;16.75;7.85;;;2.80;82.70;;;;;;4978361;28;87816;-71
2023/01/25 01:59:54;;;;;;;18.80;8.57;;;2.80;82.60;;;;;;4966092;28;87955;-72
2023/01/25 02:02:23;;;;;;;18.77;8.02;;;2.80;82.60;;;;;;4986721;28;87382;-71
2023/01/25 02:04:52;;;;;;;20.95;8.15;;;2.80;82.90;;;;;;4998234;28;87371;-72
2023/01/25 02:07:30;;;;;;;20.25;7.95;;;2.70;82.90;;;;;;4997799;28;87837;-71
2023/01/25 02:09:57;;;;;;;18.20;7.35;;;2.60;83.40;;;;;;4979528;28;88278;-71
2023/01/25 02:12:23;;;;;;;18.83;7.75;;;2.50;83.90;;;;;;4980535;28;87813;-71
2023/01/25 02:14:51;;;;;;;15.93;7.60;;;2.50;84.00;;;;;;4982515;28;87986;-72
2023/01/25 02:17:23;;;;;;;17.27;7.28;;;2.60;83.60;;;;;;4978461;28;87309;-71
2023/01/25 02:20:12;;;;;;;18.55;7.35;;;2.50;83.00;;;;;;4978042;28;87778;-71
2023/01/25 02:23:04;;;;;;;16.77;7.45;;;2.50;82.80;;;;;;4974539;28;87064;-71
2023/01/25 02:25:30;;;;;;;16.77;7.20;;;2.40;82.90;;;;;;4975473;28;88124;-71
2023/01/25 02:28:05;;;;;;;16.75;7.70;;;2.30;83.30;;;;;;4967085;28;87745;-71
2023/01/25 02:30:32;;;;;;;18.90;7.10;;;2.40;83.30;;;;;;4977026;28;87507;-72
2023/01/25 02:32:58;;;;;;;17.58;6.82;;;2.40;82.90;;;;;;4976639;28;87415;-72
2023/01/25 02:35:35;;;;;;;17.05;7.50;;;2.40;82.70;;;;;;4971721;28;89496;-72
2023/01/25 02:38:02;;;;;;;15.85;6.90;;;2.40;83.00;;;;;;4983025;28;88289;-71
2023/01/25 02:40:32;;;;;;;16.70;5.90;;;2.40;82.90;;;;;;4977841;28;87420;-72
2023/01/25 02:42:58;;;;;;;16.67;7.57;;;2.30;82.90;;;;;;4975636;28;87505;-72
2023/01/25 02:45:27;;;;;;;19.15;7.38;;;2.20;83.30;;;;;;4976394;28;87533;-72
2023/01/25 02:47:53;;;;;;;16.33;7.30;;;2.20;83.70;;;;;;4968271;28;87987;-72
2023/01/25 02:50:19;;;;;;;16.55;6.95;;;2.20;83.50;;;;;;4984911;28;87288;-72
2023/01/25 02:52:44;;;;;;;15.35;6.50;;;2.20;83.60;;;;;;4968752;28;86754;-73
2023/01/25 02:55:10;;;;;;;17.00;6.30;;;2.20;83.70;;;;;;4965995;28;88734;-73
2023/01/25 02:57:36;;;;;;;21.85;7.13;;;2.30;83.50;;;;;;4972015;28;87712;-72
2023/01/25 03:00:02;;;;;;;14.50;5.85;;;2.20;83.50;;;;;;4974366;28;88914;-72
2023/01/25 03:02:28;;;;;;;16.33;7.30;;;2.20;83.80;;;;;;4969329;28;88482;-71
2023/01/25 03:04:54;;;;;;;15.77;6.75;;;2.20;83.80;;;;;;4979884;28;88167;-72
2023/01/25 03:07:19;;;;;;;18.05;7.40;;;2.30;83.50;;;;;;4966865;28;88029;-71
2023/01/25 03:09:45;;;;;;;16.73;7.15;;;2.20;83.50;;;;;;4978628;28;87504;-72
2023/01/25 03:12:11;;;;;;;15.05;7.20;;;2.20;83.50;;;;;;4976340;28;87417;-72
2023/01/25 03:14:36;;;;;;;15.60;7.47;;;2.20;83.40;;;;;;4985353;28;87799;-72
2023/01/25 03:17:02;;;;;;;19.30;7.65;;;2.20;83.60;;;;;;4972459;28;87967;-72
2023/01/25 03:19:27;;;;;;;21.20;7.47;;;2.20;84.10;;;;;;4965695;28;88399;-71
2023/01/25 03:21:53;;;;;;;17.85;7.95;;;2.30;83.90;;;;;;4967610;28;87160;-72
2023/01/25 03:24:19;;;;;;;17.73;7.80;;;2.30;83.70;;;;;;4978941;28;89122;-72
2023/01/25 03:29:29;;;;;;;19.55;7.70;;;2.30;84.00;;;;;;4976574;28;89218;-72
2023/01/25 03:31:54;;;;;;;20.48;7.90;;;2.30;83.60;;;;;;4973370;28;89229;-72
2023/01/25 03:34:20;;;;;;;18.42;7.75;;;2.30;83.60;;;;;;4986302;28;87599;-72
2023/01/25 03:36:45;;;;;;;17.55;7.35;;;2.30;83.70;;;;;;4967677;28;88690;-72
2023/01/25 03:39:11;;;;;;;22.40;7.75;;;2.30;83.60;;;;;;4975960;28;87297;-72
2023/01/25 03:41:37;;;;;;;17.65;7.90;;;2.20;83.90;;;;;;4969950;28;86874;-72
2023/01/25 03:44:03;;;;;;;20.95;7.13;;;2.20;84.10;;;;;;4972189;28;88020;-72
2023/01/25 03:46:29;;;;;;;17.52;7.70;;;2.30;84.30;;;;;;4974384;28;87824;-72
2023/01/25 03:48:54;;;;;;;18.20;6.47;;;2.30;84.50;;;;;;4977662;28;88317;-73
2023/01/25 03:51:20;;;;;;;16.95;7.72;;;2.30;84.30;;;;;;4977922;28;88677;-73
2023/01/25 03:53:45;;;;;;;15.90;6.85;;;2.40;84.40;;;;;;4980491;28;88683;-72
2023/01/25 03:56:18;;;;;;;16.42;7.15;;;2.40;83.80;;;;;;4974199;28;88960;-73
2023/01/25 03:58:44;;;;;;;17.20;7.80;;;2.40;84.10;;;;;;4979491;28;87048;-73
2023/01/25 04:01:10;;;;;;;18.88;7.35;;;2.40;84.00;;;;;;4976558;28;87473;-71
2023/01/25 04:03:35;;;;;;;19.05;6.95;;;2.40;83.60;;;;;;4980019;28;88765;-73
2023/01/25 04:06:02;;;;;;;16.35;6.95;;;2.50;83.70;;;;;;4981421;28;87992;-73
2023/01/25 04:08:28;;;;;;;16.33;7.22;;;2.50;83.30;;;;;;4977891;28;87324;-73
2023/01/25 04:11:00;;;;;;;17.08;7.65;;;2.60;83.30;;;;;;4980459;28;87419;-73
2023/01/25 04:13:26;;;;;;;16.55;6.53;;;2.60;82.90;;;;;;4965251;28;88821;-73
2023/01/25 04:15:52;;;;;;;15.73;6.43;;;2.70;83.00;;;;;;4968253;28;89290;-75
2023/01/25 04:18:18;;;;;;;15.00;6.57;;;2.60;82.70;;;;;;4979802;28;87730;-71
2023/01/25 04:20:44;;;;;;;16.20;6.47;;;2.60;83.10;;;;;;4971269;28;88431;-73
2023/01/25 04:23:11;;;;;;;18.77;7.30;;;2.50;83.10;;;;;;4984771;28;88188;-72
2023/01/25 04:25:37;;;;;;;17.85;7.40;;;2.50;82.70;;;;;;4971484;28;88114;-71
2023/01/25 04:28:03;;;;;;;18.30;7.03;;;2.40;83.00;;;;;;4988838;28;87111;-71
2023/01/25 04:30:29;;;;;;;17.98;7.40;;;2.30;83.20;;;;;;4983590;28;87065;-71
2023/01/25 04:32:55;;;;;;;18.20;7.75;;;2.20;83.70;;;;;;4959006;28;88976;-71
2023/01/25 04:35:20;;;;;;;15.60;6.05;;;2.20;84.40;;;;;;4965733;28;87348;-71
2023/01/25 04:37:56;;;;;;;18.23;6.72;;;2.20;84.20;;;;;;4967448;28;88524;-71
2023/01/25 04:40:22;;;;;;;14.60;6.95;;;2.10;84.30;;;;;;4972185;28;87358;-72
2023/01/25 04:42:48;;;;;;;17.33;6.82;;;2.20;84.40;;;;;;4969531;28;88154;-72
2023/01/25 04:45:13;;;;;;;16.42;7.18;;;2.20;83.70;;;;;;4965331;28;87753;-71
2023/01/25 04:47:39;;;;;;;18.08;6.82;;;2.10;83.70;;;;;;4963665;28;87437;-71
2023/01/25 04:50:05;;;;;;;15.95;6.82;;;2.10;83.30;;;;;;4965470;28;89383;-71
2023/01/25 04:52:31;;;;;;;17.65;7.13;;;2.10;83.50;;;;;;4967779;28;87691;-72
2023/01/25 04:54:57;;;;;;;18.80;6.95;;;2.00;83.70;;;;;;4971503;28;88036;-71
2023/01/25 04:57:23;;;;;;;15.38;7.00;;;2.00;83.80;;;;;;4978090;28;87430;-72
2023/01/25 04:59:49;;;;;;;17.83;6.50;;;1.90;84.10;;;;;;4969044;28;87443;-72
2023/01/25 05:02:15;;;;;;;15.65;6.95;;;1.90;84.50;;;;;;4970913;28;89159;-72
2023/01/25 05:04:40;;;;;;;22.50;7.03;;;1.90;84.50;;;;;;4969470;28;90708;-71
2023/01/25 05:07:06;;;;;;;16.02;6.88;;;1.90;84.30;;;;;;4981310;28;87579;-72
2023/01/25 05:09:31;;;;;;;16.35;6.75;;;2.00;84.50;;;;;;4979166;28;87350;-71
2023/01/25 05:11:57;;;;;;;18.67;7.05;;;1.90;85.20;;;;;;4982245;28;87720;-71
2023/01/25 05:14:23;;;;;;;16.92;6.65;;;2.00;84.00;;;;;;4976900;28;87564;-71
2023/01/25 05:16:49;;;;;;;17.88;7.28;;;2.00;84.20;;;;;;4975764;28;88790;-71
2023/01/25 05:19:15;;;;;;;20.63;7.32;;;2.00;84.50;;;;;;4973629;28;86575;-71
2023/01/25 05:21:59;;;;;;;15.10;6.82;;;2.00;84.50;;;;;;4968328;28;89454;-71
2023/01/25 05:24:31;;;;;;;18.70;6.70;;;1.90;85.20;;;;;;4970838;28;87605;-71
2023/01/25 05:27:02;;;;;;;14.55;6.63;;;2.00;85.40;;;;;;4977500;28;88725;-70
2023/01/25 05:29:55;;;;;;;21.48;7.43;;;2.00;85.20;;;;;;4970601;28;87669;-69
2023/01/25 05:32:22;;;;;;;16.08;7.03;;;2.10;84.80;;;;;;4967081;28;88920;-70
2023/01/25 05:34:48;;;;;;;14.75;6.97;;;2.10;85.10;;;;;;4977759;28;88060;-73
2023/01/25 05:37:16;;;;;;;20.05;7.72;;;2.20;84.30;;;;;;4974130;28;87514;-72
2023/01/25 05:39:42;;;;;;;15.10;6.88;;;2.20;83.90;;;;;;4978441;28;87456;-70
2023/01/25 05:42:11;;;;;;;14.25;6.93;;;2.20;83.70;;;;;;4975966;28;88725;-70
2023/01/25 05:44:37;;;;;;;15.82;7.00;;;2.20;83.80;;;;;;4972415;28;87411;-71
2023/01/25 05:47:03;;;;;;;16.00;7.05;;;2.20;83.90;;;;;;4966774;28;87696;-71
2023/01/25 05:49:28;;;;;;;19.02;7.38;;;2.20;84.00;;;;;;4973322;28;88847;-74
2023/01/25 05:51:54;;;;;;;16.58;6.82;;;2.20;84.00;;;;;;4970609;28;90004;-73
2023/01/25 05:54:19;;;;;;;19.45;7.82;;;2.30;83.60;;;;;;4973233;28;87829;-72
2023/01/25 05:56:48;;;;;;;14.35;6.93;;;2.30;83.40;;;;;;4971944;28;88878;-72
2023/01/25 05:59:16;;;;;;;18.48;7.20;;;2.30;83.70;;;;;;4973007;28;87402;-70
2023/01/25 06:01:42;;;;;;;20.90;8.27;;;2.40;83.60;;;;;;4970245;28;87473;-73
2023/01/25 06:04:13;;;;;;;18.90;7.38;;;2.40;83.70;;;;;;4968720;28;89423;-74
2023/01/25 06:06:38;;;;;;;18.25;7.68;;;2.40;83.20;;;;;;4964435;28;89449;-72
2023/01/25 06:09:04;;;;;;;16.55;7.20;;;2.40;83.10;;;;;;4976110;28;86191;-74
2023/01/25 06:11:30;;;;;;;16.55;7.57;;;2.40;82.90;;;;;;4971346;28;88176;-73
2023/01/25 06:13:55;;;;;;;16.75;7.38;;;2.40;83.00;;;;;;4956537;28;89030;-74
2023/01/25 06:16:21;;;;;;;19.92;8.02;;;2.40;83.20;;;;;;4977709;28;88097;-74
2023/01/25 06:18:47;;;;;;;17.60;7.57;;;2.40;83.00;;;;;;4977849;28;88182;-74
2023/01/25 06:21:12;;;;;;;17.75;7.90;;;2.40;82.70;;;;;;4977183;28;88522;-74
2023/01/25 06:23:38;;;;;;;16.95;7.55;;;2.40;83.20;;;;;;4972735;28;89189;-72
2023/01/25 06:26:09;;;;;;;15.25;7.03;;;2.40;82.90;;;;;;4988759;28;87272;-75
2023/01/25 06:28:36;;;;;;;18.90;8.48;;;2.40;83.90;;;;;;4975427;28;87336;-74
2023/01/25 06:31:12;;;;;;;18.05;7.82;;;2.40;83.20;;;;;;4971646;28;88419;-72
2023/01/25 06:33:38;;;;;;;18.60;7.93;;;2.40;82.90;;;;;;4986547;28;87959;-70
2023/01/25 06:36:09;;;;;;;18.73;7.80;;;2.40;83.10;;;;;;4982923;28;87529;-74
2023/01/25 06:38:35;;;;;;;;;;;2.30;83.30;;;;;;4988684;28;87289;-72
2023/01/25 06:41:03;;;;;;;17.05;7.18;;;2.40;82.90;;;;;;4986961;28;89031;-73
2023/01/25 06:43:30;;;;;;;16.17;5.80;;;2.40;83.60;;;;;;4980056;28;88727;-72
2023/01/25 06:46:00;;;;;;;19.48;5.90;;;2.30;82.90;;;;;;4975347;28;89761;-76
2023/01/25 06:48:27;;;;;;;27.40;10.88;;;2.30;83.20;;;;;;4973270;28;87598;-71
2023/01/25 06:50:57;;;;;;;59.42;18.60;;;2.20;83.50;;;;;;4974903;28;87940;-71
2023/01/25 06:53:29;;;;;;;24.25;10.75;;;2.30;83.00;;;;;;4977126;28;87953;-71
2023/01/25 06:55:58;;;;;;;32.65;12.88;;;2.30;82.90;;;;;;4985539;28;87600;-71
2023/01/25 06:58:24;;;;;;;17.63;7.70;;;2.30;82.60;;;;;;4958884;28;87297;-71
2023/01/25 07:00:50;;;;;;;16.08;7.18;;;2.30;82.30;;;;;;4974389;28;87517;-71
2023/01/25 07:03:16;;;;;;;15.55;7.47;;;2.30;82.50;;;;;;4977521;28;87530;-71
2023/01/25 07:05:41;;;;;;;16.65;7.40;;;2.30;82.70;;;;;;4988043;28;88405;-71
2023/01/25 07:08:07;;;;;;;16.63;7.28;;;2.30;83.00;;;;;;4997120;28;87149;-71
2023/01/25 07:10:33;;;;;;;15.85;7.13;;;2.30;82.90;;;;;;4986831;28;88212;-71
2023/01/25 07:12:58;;;;;;;23.90;9.95;;;2.30;82.20;;;;;;4974723;28;88457;-71
2023/01/25 07:15:24;;;;;;;15.77;7.38;;;2.40;82.60;;;;;;4970495;28;87574;-71
2023/01/25 07:17:49;;;;;;;22.38;9.05;;;2.40;82.60;;;;;;4978022;28;87516;-71
2023/01/25 07:20:15;;;;;;;18.98;7.25;;;2.40;82.60;;;;;;4980957;28;87654;-71
2023/01/25 07:22:41;;;;;;;21.25;8.10;;;2.50;82.40;;;;;;4985084;28;87808;-71
2023/01/25 07:25:07;;;;;;;15.73;7.22;;;2.50;82.30;;;;;;5001005;28;87386;-72
2023/01/25 07:27:33;;;;;;;28.48;8.32;;;2.50;82.30;;;;;;4980614;28;87455;-71
2023/01/25 07:29:59;;;;;;;19.73;7.80;;;2.50;82.20;;;;;;4979138;28;89056;-70
2023/01/25 07:32:25;;;;;;;18.52;6.65;;;2.50;81.70;;;;;;4977440;28;88674;-70
2023/01/25 07:34:51;;;;;;;13.13;5.72;;;2.40;81.90;;;;;;4978634;28;87871;-71
2023/01/25 07:37:17;;;;;;;14.52;6.47;;;2.40;81.60;;;;;;4980542;28;87492;-73
2023/01/25 07:39:49;;;;;;;18.25;6.38;;;2.50;81.80;;;;;;4980834;28;88004;-73
2023/01/25 07:42:14;;;;;;;12.95;5.88;;;2.30;82.00;;;;;;4980748;28;87357;-71
2023/01/25 07:44:40;;;;;;;12.05;5.93;;;2.30;82.10;;;;;;4979417;28;87580;-71
2023/01/25 07:47:06;;;;;;;20.90;6.20;;;2.40;82.00;;;;;;4998689;28;86313;-72
2023/01/25 07:49:32;;;;;;;15.80;6.97;;;2.60;81.90;;;;;;4983954;28;88182;-71
2023/01/25 07:51:58;;;;;;;15.00;6.93;;;2.70;81.20;;;;;;4978590;28;87335;-71
2023/01/25 07:54:23;;;;;;;17.02;6.63;;;2.60;80.70;;;;;;4980052;28;88489;-72
2023/01/25 07:56:49;;;;;;;13.30;6.45;;;2.70;81.10;;;;;;4979116;28;87201;-71
2023/01/25 07:59:15;;;;;;;12.57;5.45;;;2.70;81.20;;;;;;4976660;28;87939;-70
2023/01/25 08:01:41;;;;;;;12.68;5.60;;;2.70;80.30;;;;;;4980095;28;87849;-71
2023/01/25 08:04:07;;;;;;;17.42;6.22;;;2.70;80.90;;;;;;4980546;28;87414;-73
2023/01/25 08:06:37;;;;;;;13.57;6.22;;;2.80;80.60;;;;;;4975978;28;87542;-73
2023/01/25 08:09:11;;;;;;;12.70;5.93;;;2.80;80.70;;;;;;4978723;28;88096;-71
2023/01/25 08:11:37;;;;;;;15.27;5.90;;;2.90;80.30;;;;;;4998635;28;87288;-73
2023/01/25 08:14:03;;;;;;;13.52;5.85;;;2.90;80.70;;;;;;5000180;28;87781;-73
2023/01/25 08:16:29;;;;;;;12.18;6.05;;;2.90;79.90;;;;;;4992920;28;87555;-72
2023/01/25 08:18:58;;;;;;;17.80;5.97;;;3.00;80.60;;;;;;4979547;28;89725;-73
2023/01/25 08:21:29;;;;;;;14.32;6.28;;;3.10;79.70;;;;;;4978622;28;88864;-73
2023/01/25 08:24:00;;;;;;;17.80;5.38;;;3.10;79.70;;;;;;4970297;28;87517;-72
2023/01/25 08:26:27;;;;;;;10.68;4.63;;;3.10;78.70;;;;;;4979603;28;87716;-72
2023/01/25 08:28:53;;;;;;;18.40;5.45;;;3.10;78.30;;;;;;4978760;28;87498;-72
2023/01/25 08:31:21;;;;;;;21.42;5.30;;;3.10;78.50;;;;;;4979698;28;87730;-73
2023/01/25 08:33:47;;;;;;;17.58;5.63;;;3.10;78.70;;;;;;4978916;28;87398;-72
2023/01/25 08:36:15;;;;;;;22.02;7.38;;;3.10;79.00;;;;;;4999803;28;86913;-73
2023/01/25 08:38:41;;;;;;;20.17;9.20;;;3.30;79.80;;;;;;4999784;28;87680;-70
2023/01/25 08:41:09;;;;;;;16.92;6.47;;;3.40;79.00;;;;;;4980112;28;87978;-73
2023/01/25 08:43:35;;;;;;;14.50;6.93;;;3.40;78.10;;;;;;4978728;28;88377;-71
2023/01/25 08:46:01;;;;;;;13.52;5.95;;;3.40;78.70;;;;;;4986377;28;89163;-72
2023/01/25 08:48:27;;;;;;;17.60;6.68;;;3.50;78.20;;;;;;4999318;28;87309;-71
2023/01/25 08:50:53;;;;;;;14.00;6.30;;;3.50;77.90;;;;;;4990959;28;87677;-71
2023/01/25 08:53:18;;;;;;;18.38;7.40;;;3.40;77.60;;;;;;4979214;28;87429;-71
2023/01/25 08:55:44;;;;;;;16.15;6.50;;;3.60;78.10;;;;;;4979793;28;87308;-71
2023/01/25 08:58:15;;;;;;;21.90;7.88;;;3.70;77.90;;;;;;4974724;28;88403;-70
2023/01/25 09:00:43;;;;;;;14.63;6.68;;;3.80;78.20;;;;;;4979577;28;87935;-70
2023/01/25 09:03:10;;;;;;;25.80;10.02;;;4.00;77.00;;;;;;4979629;28;87491;-73
2023/01/25 09:05:37;;;;;;;18.48;7.65;;;4.00;76.60;;;;;;4979144;28;87515;-73
2023/01/25 09:08:05;;;;;;;18.17;7.95;;;3.90;76.80;;;;;;4978627;28;88087;-72
2023/01/25 09:10:31;;;;;;;21.83;7.20;;;4.00;77.20;;;;;;4988081;28;88719;-72
2023/01/25 09:12:57;;;;;;;17.10;7.35;;;4.10;76.90;;;;;;4998948;28;87324;-72
2023/01/25 09:15:22;;;;;;;13.27;6.47;;;4.20;75.60;;;;;;4978813;28;87714;-72
2023/01/25 09:17:55;;;;;;;19.30;7.15;;;4.20;75.20;;;;;;4978818;28;88113;-72
2023/01/25 09:20:22;;;;;;;17.10;7.45;;;4.20;76.20;;;;;;4978705;28;87825;-72
2023/01/25 09:22:48;;;;;;;16.80;8.25;;;4.30;74.90;;;;;;4996250;28;87086;-72
2023/01/25 09:25:14;;;;;;;17.25;8.20;;;4.40;75.60;;;;;;4999446;28;86748;-73
2023/01/25 09:27:40;;;;;;;21.48;10.52;;;4.50;74.60;;;;;;4998269;28;88688;-71
2023/01/25 09:30:09;;;;;;;17.55;7.80;;;4.70;74.50;;;;;;4998166;28;87948;-73
2023/01/25 09:32:35;;;;;;;17.83;7.68;;;4.70;74.40;;;;;;4966041;28;88414;-73
2023/01/25 09:35:02;;;;;;;15.43;7.90;;;4.80;73.80;;;;;;4987885;28;87179;-72
2023/01/25 09:37:28;;;;;;;16.17;7.80;;;4.80;73.90;;;;;;4998286;28;87664;-72
2023/01/25 09:39:53;;;;;;;13.75;7.00;;;4.90;73.30;;;;;;4998255;28;87467;-73
2023/01/25 09:42:54;;;;;;;14.30;7.15;;;5.00;72.80;;;;;;4998788;28;87602;-73
2023/01/25 09:45:33;;;;;;;15.10;7.40;;;4.90;72.30;;;;;;4979872;28;87666;-70
2023/01/25 09:48:37;;;;;;;14.55;7.65;;;4.80;72.50;;;;;;4974888;28;88223;-72
2023/01/25 09:51:37;;;;;;;16.60;7.10;;;4.80;72.70;;;;;;4976754;28;87177;-72
2023/01/25 09:54:03;;;;;;;13.15;6.72;;;4.80;73.60;;;;;;4999169;28;87729;-72
2023/01/25 09:56:34;;;;;;;13.80;7.40;;;4.90;72.80;;;;;;4984220;28;87269;-72
2023/01/25 09:59:06;;;;;;;17.48;6.80;;;4.90;72.80;;;;;;4978049;28;88644;-73
2023/01/25 10:01:54;;;;;;;27.02;8.35;;;5.10;73.40;;;;;;4978371;28;88442;-72
2023/01/25 10:04:29;;;;;;;14.75;7.72;;;5.20;71.50;;;;;;4979083;28;87304;-72
2023/01/25 10:07:11;;;;;;;13.80;6.50;;;5.20;73.10;;;;;;4965440;28;87253;-73
2023/01/25 10:09:56;;;;;;;15.98;7.57;;;5.30;72.30;;;;;;4992660;28;88642;-73
2023/01/25 10:12:24;;;;;;;15.57;7.43;;;5.50;71.90;;;;;;4993968;28;87817;-72
2023/01/25 10:14:51;;;;;;;15.27;7.43;;;5.70;71.00;;;;;;4996045;28;87452;-73
2023/01/25 10:17:32;;;;;;;14.45;7.03;;;5.80;70.80;;;;;;4979838;28;87540;-73
2023/01/25 10:19:58;;;;;;;26.63;7.72;;;5.80;70.50;;;;;;4978929;28;87821;-72
2023/01/25 10:22:27;;;;;;;16.95;6.97;;;5.70;70.40;;;;;;4971424;28;88389;-72
2023/01/25 10:25:47;;;;;;;17.02;7.10;;;5.60;69.80;;;;;;4977484;28;88362;-72
2023/01/25 10:28:16;;;;;;;19.85;8.38;;;5.50;70.40;;;;;;4975081;28;87562;-73
2023/01/25 10:30:49;;;;;;;20.20;8.27;;;5.60;71.10;;;;;;4976299;28;88470;-72
2023/01/25 10:33:18;;;;;;;26.42;7.78;;;5.70;71.30;;;;;;4978033;28;87439;-72
2023/01/25 10:35:46;;;;;;;14.48;7.07;;;5.60;70.60;;;;;;4981017;28;87236;-73
2023/01/25 10:38:56;;;;;;;12.55;6.60;;;5.40;71.00;;;;;;4997458;28;87311;-73
2023/01/25 10:41:38;;;;;;;14.20;6.55;;;5.40;71.30;;;;;;4964186;28;87569;-72
2023/01/25 10:47:06;;;;;;;24.13;6.22;;;5.60;70.20;;;;;;4975118;28;87358;-71
2023/01/25 10:49:46;;;;;;;14.55;6.15;;;5.40;71.00;;;;;;4978434;28;87449;-72
2023/01/25 10:52:24;;;;;;;11.95;5.80;;;5.40;71.30;;;;;;4973855;28;88726;-72
2023/01/25 10:55:15;;;;;;;12.13;5.20;;;5.40;71.30;;;;;;4973443;28;89436;-70
2023/01/25 10:57:53;;;;;;;11.73;5.45;;;5.40;71.50;;;;;;4966380;28;87110;-72
2023/01/25 11:00:24;;;;;;;11.93;5.43;;;5.30;71.20;;;;;;4959125;28;87278;-73
2023/01/25 11:02:49;;;;;;;11.82;6.07;;;5.20;71.60;;;;;;4958853;28;87625;-73
2023/01/25 11:05:30;;;;;;;17.30;6.78;;;5.40;71.60;;;;;;4965886;28;87583;-71
2023/01/25 11:07:58;;;;;;;13.07;5.30;;;5.60;70.60;;;;;;4970237;28;87380;-70
2023/01/25 11:10:29;;;;;;;11.55;5.05;;;5.60;71.10;;;;;;4988923;28;86748;-73
2023/01/25 11:13:16;;;;;;;10.25;4.85;;;5.70;70.10;;;;;;4971279;28;88477;-69
2023/01/25 11:15:46;;;;;;;10.30;5.15;;;5.70;69.90;;;;;;4966512;28;87999;-72
2023/01/25 11:18:16;;;;;;;11.48;4.57;;;5.70;70.50;;;;;;4974574;28;88873;-72
2023/01/25 11:20:42;;;;;;;10.63;4.40;;;5.60;70.50;;;;;;4968227;28;88887;-73
2023/01/25 11:23:26;;;;;;;13.35;4.97;;;5.70;71.10;;;;;;4962338;28;88042;-71
2023/01/25 11:25:52;;;;;;;12.65;3.97;;;5.70;69.70;;;;;;4968355;28;87993;-73
2023/01/25 11:28:23;;;;;;;10.52;5.13;;;5.70;70.60;;;;;;4963721;28;87149;-71
2023/01/25 11:30:52;;;;;;;12.10;4.57;;;5.70;69.80;;;;;;4966704;28;87849;-72
2023/01/25 11:33:20;;;;;;;10.98;5.13;;;5.80;70.00;;;;;;4962998;28;88178;-71
2023/01/25 11:36:08;;;;;;;14.43;4.68;;;5.90;70.20;;;;;;4967650;28;88549;-72
2023/01/25 11:38:34;;;;;;;11.10;4.40;;;6.00;70.70;;;;;;4960077;28;87588;-70
2023/01/25 11:41:23;;;;;;;12.70;4.13;;;6.10;70.70;;;;;;4959698;28;88994;-72
2023/01/25 11:44:10;;;;;;;12.07;4.63;;;6.20;69.70;;;;;;4961658;28;89058;-71
2023/01/25 11:47:07;;;;;;;13.07;4.93;;;6.20;68.90;;;;;;4960271;28;88695;-73
2023/01/25 11:49:56;;;;;;;11.18;4.70;;;6.20;70.40;;;;;;4994830;28;87412;-71
2023/01/25 11:52:25;;;;;;;12.15;4.63;;;6.20;70.40;;;;;;4983009;28;87476;-71
2023/01/25 11:55:07;;;;;;;12.02;4.55;;;6.30;70.10;;;;;;4966808;28;88372;-71
2023/01/25 11:57:44;;;;;;;11.75;3.70;;;6.30;68.90;;;;;;4969839;28;87224;-72
2023/01/25 12:00:28;;;;;;;19.48;5.13;;;6.20;68.90;;;;;;4961302;28;88920;-72
2023/01/25 12:03:13;;;;;;;11.07;4.65;;;6.10;68.70;;;;;;4959950;28;86473;-71
2023/01/25 12:06:21;;;;;;;18.95;4.53;;;6.00;69.50;;;;;;4961775;28;89223;-73
2023/01/25 12:09:19;;;;;;;8.65;3.85;;;5.90;71.20;;;;;;4965202;28;88747;-71
2023/01/25 12:12:04;;;;;;;12.73;4.57;;;6.00;69.50;;;;;;4966665;28;88923;-71
2023/01/25 12:14:48;;;;;;;19.65;5.30;;;5.90;69.20;;;;;;4960452;28;87506;-70
2023/01/25 12:17:38;;;;;;;44.83;13.35;;;5.90;69.80;;;;;;4967679;28;88180;-70
2023/01/25 12:20:25;;;;;;;12.65;5.00;;;6.10;78.90;;;;;;4967204;28;87873;-72
2023/01/25 12:23:09;;;;;;;10.88;4.43;;;6.20;69.80;;;;;;4976045;28;87283;-70
2023/01/25 12:25:37;;;;;;;12.32;4.40;;;6.10;69.30;;;;;;4975673;28;87457;-70
2023/01/25 12:28:12;;;;;;;10.68;4.50;;;6.10;70.20;;;;;;4965516;28;88696;-70
2023/01/25 12:30:50;;;;;;;11.50;4.13;;;6.10;70.10;;;;;;4959929;28;87906;-72
2023/01/25 12:33:28;;;;;;;12.05;3.92;;;6.10;68.90;;;;;;4976174;28;87789;-72
2023/01/25 12:36:05;;;;;;;9.65;4.50;;;5.90;69.70;;;;;;4978636;28;87659;-70
2023/01/25 12:38:40;;;;;;;10.50;3.75;;;5.70;70.00;;;;;;4971850;28;90470;-72
2023/01/25 12:41:36;;;;;;;9.30;4.07;;;5.70;70.00;;;;;;4975396;28;87543;-72
2023/01/25 12:44:17;;;;;;;8.70;4.15;;;5.50;70.20;;;;;;4990603;28;87375;-72
2023/01/25 12:46:48;;;;;;;10.07;4.07;;;5.40;70.70;;;;;;4987565;28;88146;-72
2023/01/25 12:49:24;;;;;;;12.25;4.20;;;5.50;70.90;;;;;;4983497;28;88490;-71
2023/01/25 12:51:52;;;;;;;9.15;4.30;;;5.50;70.70;;;;;;4969514;28;88453;-71
2023/01/25 12:54:29;;;;;;;10.70;4.10;;;5.50;71.10;;;;;;4985607;28;87321;-72
2023/01/25 12:57:08;;;;;;;9.48;3.72;;;5.50;70.90;;;;;;4976604;28;86808;-70
2023/01/25 12:59:47;;;;;;;11.00;4.60;;;5.40;70.80;;;;;;4997923;28;87585;-71
2023/01/25 13:02:30;;;;;;;11.48;4.55;;;5.40;71.80;;;;;;4997861;28;87670;-73
2023/01/25 13:05:15;;;;;;;9.07;4.05;;;5.30;71.90;;;;;;4996958;28;88286;-72
2023/01/25 13:07:53;;;;;;;9.48;4.25;;;5.30;72.00;;;;;;4994232;28;88969;-68
2023/01/25 13:10:26;;;;;;;10.13;4.25;;;5.50;73.20;;;;;;4985848;28;87025;-71